Bryant, South Dakota
Current Conditions -  °F | °C
As of 8:08 AM on Thursday 23 Oct 2014 (Local Time) from KATY Reporting Station
Scattered Clouds Scattered Clouds  
Wind Chill: 32°   Ceiling: Unl
Heat Index: 37°   Visibility: 8mi
Dew Point: 37°   Wind: 6mph
Humidity: 100%   Direction: 160°SSE
Pressure: 29.98"   Gusts: NA
Location:  44.59°N, 97.47°W
Report Text: KATY 231308Z AUTO 16005KT 8SM SCT001 03/03 A2998 RMK AO2 T00280028
Loading
Personal Weather Stations






























Interactive Weather Map
Tropical Storm Tracking
New forecast layout! Learn more

10-Day Weather Forecast

Advertisements
Track Severe Weather on mobile